الصفحة الرئيسية
METAR-TAF:

METAR-TAF

مطار :

سايبان, جزر ماريانا, الولايات المتحدة

دائرة عرض: 15-07N, خط طول: 145-44E, ارتفاع: 66 متر

مراقبة الطقس الحالي

تاريخ ووقت الإصدار 1ساعة و 4 دقيقة قبل الساعة 05:54UTC
ريح 12 عقدة من الشرق/الشمال الشرقي
درجة الحرارة 30°درجة مئوية
الرطوبة 66%
ضغط 1011 hPa
الرؤية: 16.1 كم
غيوم متفرقة على ارتفاع 2100 قدم

METAR: PGSN 060554Z 07012KT 10SM SCT021 30/23 A2985 RMK AO2 SLP130 T03000228 10317 20294 56018

زمن: 16:58 (06:58 UTC)

توقعات

تاريخ ووقت الإصدار 1ساعة و 21 دقيقة قبل الساعة 05:37UTC
التوقعات صالحة من06 الساعة 06 UTC إلى 07 الساعة 06 UTC
ريح 15 عقدة من الشرق/الشمال الشرقي
الرؤية: 10 كم
غيوم متفرقة على ارتفاع 1800 قدم
من 06 الساعة 1000 UTC
ريح 11 عقدة من الشرق
الرؤية: 10 كم
غيوم متفرقة على ارتفاع 2000 قدم
زخات في الجوار

TAF: PGSN 060537Z 0606/0706 07015KT P6SM SCT018 FM061000 08011KT P6SM VCSH SCT020

أرصاد الطقس والتوقعات من أكثر من 4000 مطار (تقارير الطقس للمطار METAR والتنبؤ بالطقس بالمطارTAF).

المحطات المتاحة هي النقط الصفراء والحمراء على الخريطة.

حرك المؤشر فوق النقطة لمعرفة اسم المحطة.

ثم انقر لمعرفة أرصاد وتوقعات الطقس.

لتغيير الخارطة: اضغط على الأزرار الخضراء مع رمز الصليب الأسود للتكبير. على الزر الأخضر مع شرطة للتصغير، أو على الأسهم الخضراء للخرائط المجاورة.


METAR-TAF: